Airfield :
LOGIN :

Register | Disclaimer

   EN    FR    IT 

 










Legend :    VFR   Marginal VFR   IFR   Intensive IFR   Very Intensive IFR
Visi :
Ceiling :
>= 8 km
>= 3000ft
5 to 8 km
1000 to 3000 ft
1500m to 5 km
500 to 1000 ft
800 to 1500m
200 to 500 ft
< 800m
< 200 ft
Symbols :   Thunderstorms  Fog  Heavy snow  Heavy precipitations  Wind > 20 kt
SIGMETs :     Misc.  Thunderstorms  Icing  Turbulence  Mountain Waves  Volcanic Ashes






- Airport Elevation : 375 ft
- IATA code : MST


EHBK - Maastricht Aachen

CURRENT METAR :
  • 301725Z AUTO 21013KT 4300 -SHRA BKN007 OVC008 03/02 Q1019 REDZ BECMG BKN004

EXPIRED METARs :
  • 301655Z AUTO 20016KT 5000 -DZ BKN005 OVC006 04/03 Q1019 REDZ BECMG BKN004
  • 301625Z AUTO 20013KT 6000 OVC006 04/03 Q1020 REDZ TEMPO 9000 -DZRA
  • 301555Z AUTO 21013KT 9000 -RA OVC008 04/02 Q1021 TEMPO 7000 -DZRA
  • 301525Z AUTO 22014KT 9000 OVC008 04/02 Q1021 BECMG 7000
  • 301455Z AUTO 22012KT 9000 OVC008 04/02 Q1022 BECMG 7000
  • 301425Z AUTO 21011KT 9999 OVC008 04/01 Q1022 BECMG 7000

TAF TAF EHBK
Valid from the 30 at 12:00 until the 01 at 18:00 UTC


301119Z 3012/0118 21010KT 7000 OVC007
BECMG 3015/3018 4000 RADZ BKN004
PROB40
TEMPO 3020/3024 2000 DZRA BKN002
BECMG 3021/3024 24010KT
BECMG 0100/0103 28008KT 9999 NSW SCT020
TEMPO 0103/0118 7000 RA SHRA BKN012 SCT015CB
BECMG 0106/0109 31012KT
BECMG 0109/0112 33010KT
PROB40 0112/0118 4000 BR BKN006



MET'MAP, your aeronautical weather chart ! - Copyright ORBIFLY December 2007 - Disclaimer

ORBIFLY MET'MAP TEAM :

Programming & Development : Alexandra Zaïnal
Concept & original design : Baudouin d'Aumeries
Assistance for programming : Marc-Olivier Méhu
Technical & hardware support : Manuel Goepfert

Contact : metmap@orbifly.com




SOURCES & CREDITS :

   NOAA